Country
Station

 

Weather  for  Potosi  -  Bolivia    Bolivia

  
16 °C (61 °F)
    
 
 

Current METAR for Potosi is :

SLPO 111800Z 00000KT 9999 SCT020 16/00 Q1034

 

This is a report for Potosi - Bolivia.
 
The report was made 235 hours and 8 minutes ago, at 18:00 UTC .
The wind was calm.
 
The temperature was 16 °C (61 °F)
The atmospheric pressure was 1034 hPa (30.53 inHg).
There were scattered clouds at a height of 610 meters (2000 feet).
 
The overall visibility was greater than 10 kilometers (6.2 miles).
 

 
 
 
 

Country :   A   B   C   D   E   F   G   H   I   J   K   L   M   N   O   P   Q   R   S   T   U   V   W   Y   Z

 

Site Info  |  Disclaimer  |  Credits  |  Privacy
Contact us  |  Add to favorites
© 2013-2020 METARs - All rights reserved